ADDS METAR Data INFO
IDs: Format: Raw Decoded Include TAF

Data at: 1749 UTC 21 Oct 2017

KBOW 211655Z 07013KT 10SM FEW043 28/19 A3014
KBOW 211559Z 09010G15KT 10SM SKC 28/18 A3016
KBOW 211459Z 09014G19KT 10SM SKC 27/17 A3016
KBOW 211350Z 08009KT 10SM SKC 25/19 A3015
KBOW 211255Z 07007KT 10SM SKC 22/21 A3014
KBOW 211159Z 06008KT 10SM BKN050 22/21 A3011
KBOW 211130Z 05007KT 10SM BKN050 22/22 A3010
KBOW 211115Z AUTO 05007KT 10SM CLR 22/22 A3010 RMK AO2
KBOW 211055Z AUTO 05007KT 10SM FEW034 FEW041 22/22 A3009 RMK AO2
KBOW 211035Z AUTO 05006KT 10SM FEW029 FEW034 FEW041 22/22 A3009 RMK AO2
KBOW 211015Z AUTO 05006KT 10SM CLR 21/21 A3009 RMK AO2
KBOW 210955Z AUTO 05005KT 10SM FEW031 FEW039 FEW044 21/21 A3009 RMK AO2
KBOW 210935Z AUTO 04005KT 10SM FEW031 SCT039 21/21 A3008 RMK AO2
KBOW 210915Z AUTO 05005KT 10SM CLR 21/21 A3008 RMK AO2
KBOW 210855Z AUTO 05006KT 10SM CLR 21/21 A3008 RMK AO2
KBOW 210835Z AUTO 05005KT 10SM FEW036 21/21 A3008 RMK AO2
KBOW 210815Z AUTO 04005KT 10SM CLR 21/21 A3007 RMK AO2
KBOW 210755Z AUTO 05005KT 10SM CLR 21/21 A3007 RMK AO2
KBOW 210735Z AUTO 05005KT 10SM FEW037 22/22 A3008 RMK AO2
KBOW 210715Z AUTO 05005KT 10SM CLR 22/22 A3008 RMK AO2
KBOW 210655Z AUTO 05006KT 10SM CLR 22/22 A3008 RMK AO2
KBOW 210635Z AUTO 05007KT 10SM FEW030 FEW041 FEW047 22/22 A3008 RMK AO2
KBOW 210615Z AUTO 06006KT 10SM FEW030 FEW041 FEW046 22/22 A3009 RMK AO2
KBOW 210555Z AUTO 06005KT 10SM CLR 22/22 A3009 RMK AO2
KBOW 210535Z AUTO 05005KT 10SM CLR 22/22 A3009 RMK AO2
KBOW 210515Z AUTO 06006KT 10SM CLR 22/22 A3010 RMK AO2
KBOW 210455Z AUTO 05006KT 10SM CLR 22/22 A3010 RMK AO2
KBOW 210435Z AUTO 05006KT 10SM CLR 22/21 A3011 RMK AO2
KBOW 210415Z AUTO 05005KT 10SM CLR 22/21 A3012 RMK AO2
KBOW 210355Z AUTO 05006KT 10SM CLR 22/20 A3012 RMK AO2
KBOW 210335Z AUTO 05006KT 10SM CLR 22/20 A3012 RMK AO2
KBOW 210315Z AUTO 05005KT 10SM CLR 22/20 A3012 RMK AO2
KBOW 210255Z AUTO 06005KT 10SM FEW030 22/20 A3012 RMK AO2
KBOW 210235Z AUTO 05005KT 10SM CLR 23/20 A3012 RMK AO2
KBOW 210215Z AUTO 06007KT 10SM CLR 23/20 A3012 RMK AO2
KBOW 210155Z AUTO 06006KT 10SM FEW031 23/20 A3011 RMK AO2
KBOW 210135Z AUTO 06006G13KT 10SM FEW030 23/20 A3010 RMK AO2
KBOW 210115Z AUTO 05009KT 10SM FEW029 23/20 A3010 RMK AO2
KBOW 210055Z AUTO 06008KT 10SM FEW029 FEW036 24/19 A3010 RMK AO2
KBOW 210035Z AUTO 06009KT 10SM FEW029 FEW036 24/19 A3009 RMK AO2
KBOW 210015Z AUTO 06006KT 10SM CLR 24/19 A3010 RMK AO2
KBOW 202355Z AUTO 06006KT 10SM CLR 24/19 A3009 RMK AO2
KBOW 202335Z AUTO 05006G13KT 10SM CLR 25/19 A3008 RMK AO2
KBOW 202315Z AUTO 07010G16KT 10SM CLR 25/19 A3008 RMK AO2
KBOW 202255Z AUTO 07012G18KT 10SM CLR 25/19 A3007 RMK AO2
KBOW 202235Z AUTO 07009G16KT 10SM FEW040 FEW047 FEW060 26/19 A3007 RMK AO2
KBOW 202215Z AUTO 05013G18KT 10SM FEW040 27/19 A3006 RMK AO2
KBOW 202155Z AUTO 05013KT 10SM FEW043 SCT065 27/19 A3005 RMK AO2
KBOW 202135Z AUTO 04009G19KT 10SM SCT044 SCT050 SCT070 27/19 A3005 RMK AO2
KBOW 202059Z 06011G17KT 10SM SCT044 28/19 A3005
KBOW 201850Z 07012G20KT 10SM SCT055 29/18 A3007
KBOW 201755Z 06012G19KT 10SM SCT050 29/19 A3009
KBOW 201659Z 06013G19KT 10SM BKN041 28/19 A3011
KBOW 201555Z 07014G20KT 10SM SCT037 28/19 A3013
KBOW 201450Z 06014KT 10SM SKC 27/19 A3013
KBOW 201352Z 06011KT 10SM SKC 25/20 A3014
KBOW 201250Z 05007KT 10SM SKC 23/21 A3013
KBOW 201159Z 03005KT 10SM SKC 22/21 A3012
KBOW 201130Z 03005KT 10SM SKC 22/22 A3011
KBOW 201115Z AUTO 03006KT 10SM CLR 22/22 A3011 RMK AO2
KBOW 201055Z AUTO 03005KT 10SM CLR 22/22 A3011 RMK AO2
KBOW 201035Z AUTO 02005KT 10SM CLR 22/22 A3010 RMK AO2
KBOW 201015Z AUTO 03006KT 10SM CLR 22/22 A3010 RMK AO2
KBOW 200955Z AUTO 02005KT 10SM CLR 22/22 A3010 RMK AO2
KBOW 200915Z AUTO 03006KT 10SM CLR 22/22 A3009 RMK AO2
KBOW 200855Z AUTO 03006KT 10SM FEW030 22/22 A3009 RMK AO2
KBOW 200835Z AUTO 03006KT 10SM FEW030 SCT042 22/22 A3009 RMK AO2
KBOW 200815Z AUTO 03006KT 10SM FEW028 FEW038 SCT043 22/22 A3008 RMK AO2
KBOW 200755Z AUTO 04005KT 10SM CLR 22/22 A3009 RMK AO2
KBOW 200735Z AUTO 02005KT 10SM FEW027 22/22 A3009 RMK AO2
KBOW 200715Z AUTO 03006KT 10SM CLR 22/22 A3009 RMK AO2
KBOW 200655Z AUTO 02006KT 10SM FEW024 FEW047 22/22 A3010 RMK AO2
KBOW 200635Z AUTO 03005KT 10SM FEW023 SCT028 BKN034 22/22 A3010 RMK AO2
KBOW 200615Z AUTO 03007KT 10SM BKN032 BKN039 22/22 A3010 RMK AO2
KBOW 200555Z AUTO 04004KT 10SM FEW028 SCT034 BKN047 22/22 A3011 RMK AO2